createdAt,value
2023-03-21T00:01:42.873Z,24.38
2023-03-21T00:05:09.341Z,23.55
2023-03-21T00:08:17.398Z,22.50
2023-03-21T00:11:33.670Z,21.68
2023-03-21T00:14:50.249Z,21.43
2023-03-21T00:18:09.534Z,23.88
2023-03-21T00:21:44.340Z,21.28
2023-03-21T00:24:47.630Z,23.65
2023-03-21T00:28:08.215Z,22.65
2023-03-21T00:31:22.870Z,24.53
2023-03-21T00:34:43.332Z,23.78
2023-03-21T00:37:57.438Z,22.63
2023-03-21T00:41:31.637Z,24.60
2023-03-21T00:44:37.445Z,24.58
2023-03-21T00:47:53.779Z,25.70
2023-03-21T00:51:13.197Z,21.98
2023-03-21T00:54:29.843Z,22.93
2023-03-21T00:57:50.157Z,24.83
2023-03-21T01:01:05.198Z,23.50
2023-03-21T01:04:22.059Z,24.65
2023-03-21T01:07:38.182Z,24.28
2023-03-21T01:10:57.468Z,25.63
2023-03-21T01:14:22.482Z,26.20
2023-03-21T01:17:32.270Z,25.15
2023-03-21T01:20:51.694Z,24.73
2023-03-21T01:24:08.733Z,24.33
2023-03-21T01:27:25.070Z,23.88
2023-03-21T01:30:42.174Z,24.08
2023-03-21T01:33:59.118Z,23.35
2023-03-21T01:37:15.200Z,24.30
2023-03-21T01:40:35.914Z,25.05
2023-03-21T01:44:00.438Z,24.25
2023-03-21T01:47:18.193Z,25.37
2023-03-21T01:50:35.094Z,25.63
2023-03-21T01:53:53.922Z,27.00
2023-03-21T01:57:14.533Z,24.78
2023-03-21T02:00:34.762Z,25.45
2023-03-21T02:03:55.347Z,25.50
2023-03-21T02:07:18.977Z,25.83
2023-03-21T02:10:40.437Z,27.43
2023-03-21T02:14:06.210Z,26.08
2023-03-21T02:17:23.516Z,24.90
2023-03-21T02:21:44.122Z,25.10
2023-03-21T02:25:36.231Z,24.78
2023-03-21T02:28:57.200Z,25.18
2023-03-21T02:32:31.518Z,25.13
2023-03-21T02:36:15.190Z,25.75
2023-03-21T02:39:37.469Z,24.88
2023-03-21T02:43:07.252Z,24.98
2023-03-21T02:46:33.382Z,24.55
2023-03-21T02:49:53.855Z,23.75
2023-03-21T02:53:13.292Z,24.50
2023-03-21T02:56:32.785Z,24.15
2023-03-21T02:59:54.524Z,24.63
2023-03-21T03:03:15.949Z,24.70
2023-03-21T03:06:34.392Z,25.30
2023-03-21T03:10:08.809Z,24.75
2023-03-21T03:13:43.897Z,23.78
2023-03-21T03:17:09.498Z,27.70
2023-03-21T03:20:40.008Z,27.90
2023-03-21T03:24:01.140Z,26.58
2023-03-21T03:27:23.045Z,27.53
2023-03-21T03:30:48.813Z,26.38
2023-03-21T03:34:03.576Z,28.58
2023-03-21T03:37:26.985Z,26.38
2023-03-21T03:40:51.742Z,26.95
2023-03-21T03:44:22.434Z,26.90
2023-03-21T03:47:56.009Z,28.90
2023-03-21T03:51:07.977Z,28.70
2023-03-21T03:54:36.095Z,29.23
2023-03-21T03:57:53.253Z,30.00
2023-03-21T04:01:09.419Z,33.40
2023-03-21T04:04:29.403Z,35.03
2023-03-21T04:10:59.699Z,36.08
2023-03-21T04:14:16.524Z,36.48
2023-03-21T04:17:33.805Z,34.58
2023-03-21T04:20:50.135Z,38.08
2023-03-21T04:24:08.187Z,38.60
2023-03-21T04:27:24.804Z,38.93
2023-03-21T04:31:03.468Z,37.95
2023-03-21T04:34:15.935Z,38.63
2023-03-21T04:37:34.682Z,39.53
2023-03-21T04:40:51.120Z,38.90
2023-03-21T04:44:07.912Z,36.23
2023-03-21T04:47:25.830Z,38.28
2023-03-21T04:50:43.436Z,38.75
2023-03-21T04:53:59.728Z,35.08
2023-03-21T04:57:16.052Z,36.53
2023-03-21T05:00:32.811Z,36.53
2023-03-21T05:03:49.059Z,35.80
2023-03-21T05:07:05.952Z,35.30
2023-03-21T05:10:22.434Z,35.68
2023-03-21T05:13:38.544Z,31.88
2023-03-21T05:16:58.500Z,31.28
2023-03-21T05:20:18.540Z,30.05
2023-03-21T05:23:36.802Z,29.98
2023-03-21T05:26:56.908Z,28.47
2023-03-21T05:30:21.067Z,29.55
2023-03-21T05:33:38.216Z,28.70
2023-03-21T05:36:54.603Z,27.80
2023-03-21T05:40:14.977Z,25.60
2023-03-21T05:43:32.986Z,26.93
2023-03-21T05:46:49.396Z,24.98
2023-03-21T05:50:07.668Z,25.35
2023-03-21T05:53:24.139Z,24.53
2023-03-21T05:56:40.852Z,24.58
2023-03-21T05:59:58.640Z,22.13
2023-03-21T06:03:16.120Z,24.68
2023-03-21T06:06:46.490Z,23.80
2023-03-21T06:10:02.849Z,22.58
2023-03-21T06:13:18.904Z,23.30
2023-03-21T06:16:35.480Z,21.43
2023-03-21T06:19:51.643Z,19.95
2023-03-21T06:23:12.217Z,19.03
2023-03-21T06:26:28.351Z,18.25
2023-03-21T06:29:44.593Z,17.75
2023-03-21T06:33:01.120Z,17.05
2023-03-21T06:36:19.152Z,15.03
2023-03-21T06:39:35.510Z,14.30
2023-03-21T06:42:51.803Z,13.73
2023-03-21T06:46:09.016Z,14.25
2023-03-21T06:49:26.930Z,12.93
2023-03-21T06:52:44.689Z,12.83
2023-03-21T06:56:01.911Z,12.65
2023-03-21T06:59:19.958Z,12.65
2023-03-21T07:05:58.761Z,11.45
2023-03-21T07:09:17.649Z,10.33
2023-03-21T07:12:34.896Z,10.80
2023-03-21T07:15:55.837Z,9.43
2023-03-21T07:19:13.122Z,9.68
2023-03-21T07:22:29.781Z,8.38
2023-03-21T07:25:45.984Z,7.80
2023-03-21T07:29:02.375Z,8.13
2023-03-21T07:32:18.687Z,7.48
2023-03-21T07:35:35.116Z,7.55
2023-03-21T07:38:52.265Z,6.65
2023-03-21T07:42:12.304Z,6.85
2023-03-21T07:45:29.044Z,7.05
2023-03-21T07:48:45.758Z,7.53
2023-03-21T07:52:04.678Z,7.50
2023-03-21T07:55:22.590Z,7.63
2023-03-21T07:58:39.262Z,7.33
2023-03-21T08:01:55.684Z,8.45
2023-03-21T08:05:12.801Z,7.83
2023-03-21T08:08:28.701Z,8.48
2023-03-21T08:11:45.290Z,7.68
2023-03-21T08:15:01.800Z,6.93
2023-03-21T08:18:18.773Z,8.05
2023-03-21T08:21:35.121Z,7.63
2023-03-21T08:24:51.778Z,6.85
2023-03-21T08:28:08.716Z,6.60
2023-03-21T08:31:26.378Z,6.40
2023-03-21T08:34:43.547Z,6.80
2023-03-21T08:38:00.150Z,7.10
2023-03-21T08:41:21.280Z,7.13
2023-03-21T08:44:39.670Z,7.43
2023-03-21T08:47:56.891Z,7.95
2023-03-21T08:51:14.474Z,7.75
2023-03-21T08:54:32.057Z,8.10
2023-03-21T08:57:48.625Z,7.78
2023-03-21T09:01:05.835Z,8.28
2023-03-21T09:04:22.667Z,8.03
2023-03-21T09:07:40.166Z,9.13
2023-03-21T09:10:59.856Z,7.50
2023-03-21T09:14:16.710Z,6.38
2023-03-21T09:17:33.516Z,6.90
2023-03-21T09:20:51.470Z,7.45
2023-03-21T09:24:08.103Z,7.58
2023-03-21T09:27:26.788Z,6.88
2023-03-21T09:30:45.458Z,8.70
2023-03-21T09:34:03.346Z,8.70
2023-03-21T09:37:22.023Z,10.50
2023-03-21T09:40:54.768Z,11.90
2023-03-21T09:44:38.538Z,12.28
2023-03-21T09:47:59.105Z,23.48
2023-03-21T09:51:21.737Z,12.18
2023-03-21T09:54:41.327Z,11.28
2023-03-21T09:58:03.884Z,10.43
2023-03-21T10:01:28.097Z,10.08
2023-03-21T10:04:47.067Z,12.05
2023-03-21T10:08:07.855Z,11.05
2023-03-21T10:11:28.142Z,9.65
2023-03-21T10:14:48.371Z,12.45
2023-03-21T10:18:10.950Z,12.93
2023-03-21T10:21:56.941Z,13.53
2023-03-21T10:24:51.423Z,14.00
2023-03-21T10:28:08.723Z,16.70
2023-03-21T10:31:31.171Z,16.13
2023-03-21T10:34:51.469Z,28.23
2023-03-21T10:38:07.940Z,25.78
2023-03-21T10:41:24.469Z,19.53
2023-03-21T10:44:43.474Z,17.10
2023-03-21T10:48:01.253Z,17.88
2023-03-21T10:51:23.581Z,19.08
2023-03-21T10:54:41.634Z,18.35
2023-03-21T10:58:01.397Z,19.13
2023-03-21T11:01:24.885Z,18.88
2023-03-21T11:04:41.984Z,19.03
2023-03-21T11:08:04.200Z,18.53
2023-03-21T11:11:30.193Z,20.35
2023-03-21T11:14:49.523Z,74.75
2023-03-21T11:21:24.801Z,20.18
2023-03-21T11:24:43.354Z,19.70
2023-03-21T11:28:03.527Z,20.03
2023-03-21T11:31:20.633Z,19.13
2023-03-21T11:34:43.793Z,18.85
2023-03-21T11:38:03.720Z,18.90
2023-03-21T11:41:29.307Z,17.50
2023-03-21T11:44:53.320Z,17.88
2023-03-21T11:48:14.381Z,19.25
2023-03-21T11:51:37.682Z,19.48
2023-03-21T11:55:26.753Z,19.43
2023-03-21T11:58:57.958Z,17.90
2023-03-21T12:02:32.629Z,16.60
2023-03-21T12:05:53.653Z,18.33
2023-03-21T12:09:34.635Z,17.98
2023-03-21T12:12:56.393Z,16.45
2023-03-21T12:16:25.452Z,16.80
2023-03-21T12:23:47.806Z,19.83
2023-03-21T12:27:09.144Z,21.93
2023-03-21T12:30:39.673Z,22.10
2023-03-21T12:34:07.247Z,20.98
2023-03-21T12:37:29.629Z,24.45
2023-03-21T12:41:08.130Z,25.10
2023-03-21T12:44:27.028Z,24.25
2023-03-21T12:47:46.486Z,24.45
2023-03-21T12:51:05.663Z,24.15
2023-03-21T12:54:29.628Z,23.13
2023-03-21T12:57:57.574Z,25.93
2023-03-21T13:01:12.167Z,27.58
2023-03-21T13:04:47.430Z,27.50
2023-03-21T13:08:07.940Z,26.58
2023-03-21T13:11:27.751Z,26.53
2023-03-21T13:14:49.362Z,25.10
2023-03-21T13:18:13.325Z,25.15
2023-03-21T13:21:38.064Z,25.33
2023-03-21T13:24:58.815Z,25.58
2023-03-21T13:28:25.884Z,25.13
2023-03-21T13:31:51.767Z,26.13
2023-03-21T13:35:10.697Z,25.88
2023-03-21T13:38:32.642Z,27.23
2023-03-21T13:41:52.981Z,28.38
2023-03-21T13:45:15.706Z,27.48
2023-03-21T13:48:49.363Z,28.53
2023-03-21T13:52:04.033Z,27.78
2023-03-21T13:55:27.122Z,27.53
2023-03-21T13:58:48.562Z,28.18
2023-03-21T14:05:29.700Z,29.28
2023-03-21T14:08:49.240Z,27.98
2023-03-21T14:15:29.468Z,27.68
2023-03-21T14:18:55.784Z,28.25
2023-03-21T14:22:18.106Z,29.40
2023-03-21T14:25:46.671Z,31.25
2023-03-21T14:28:59.835Z,27.63
2023-03-21T14:32:26.752Z,30.00
2023-03-21T14:35:43.256Z,32.28
2023-03-21T14:39:16.076Z,30.48
2023-03-21T14:42:36.562Z,27.55
2023-03-21T14:45:55.560Z,29.03
2023-03-21T14:49:29.901Z,29.30
2023-03-21T14:52:48.622Z,26.55
2023-03-21T14:56:08.458Z,25.88
2023-03-21T14:59:29.406Z,26.00
2023-03-21T15:02:48.352Z,25.48
2023-03-21T15:06:06.411Z,25.45
2023-03-21T15:09:28.768Z,26.60
2023-03-21T15:12:48.231Z,25.18
2023-03-21T15:16:04.833Z,25.40
2023-03-21T15:19:26.006Z,34.15
2023-03-21T15:22:45.768Z,24.25
2023-03-21T15:26:02.844Z,24.25
2023-03-21T15:29:21.195Z,21.90
2023-03-21T15:32:39.031Z,21.70
2023-03-21T15:36:01.139Z,22.58
2023-03-21T15:39:22.455Z,22.53
2023-03-21T15:42:45.095Z,22.38
2023-03-21T15:46:03.370Z,20.38
2023-03-21T15:49:35.414Z,71.13
2023-03-21T15:52:52.058Z,39.43
2023-03-21T15:56:12.751Z,26.15
2023-03-21T15:59:31.521Z,22.10
2023-03-21T16:02:49.695Z,21.83
2023-03-21T16:06:29.189Z,21.38
2023-03-21T16:09:55.564Z,20.90
2023-03-21T16:13:12.937Z,21.23
2023-03-21T16:16:32.201Z,21.03
2023-03-21T16:19:49.391Z,21.25
2023-03-21T16:23:06.160Z,20.70
2023-03-21T16:26:26.384Z,20.63
2023-03-21T16:29:43.127Z,21.03
2023-03-21T16:32:59.695Z,20.68
2023-03-21T16:36:21.301Z,21.03
2023-03-21T16:39:38.113Z,21.08
2023-03-21T16:42:54.352Z,22.08
2023-03-21T16:46:10.784Z,21.88
2023-03-21T16:49:33.524Z,25.33
2023-03-21T16:52:49.638Z,34.88
2023-03-21T16:56:07.017Z,39.20
2023-03-21T16:59:24.365Z,39.58
2023-03-21T17:02:40.789Z,41.53
2023-03-21T17:05:57.198Z,40.38
2023-03-21T17:09:15.436Z,38.25
2023-03-21T17:12:31.657Z,39.40
2023-03-21T17:15:48.283Z,39.48
2023-03-21T17:19:05.623Z,39.75
2023-03-21T17:22:22.183Z,38.95
2023-03-21T17:25:38.628Z,38.35
2023-03-21T17:28:55.497Z,39.25
2023-03-21T17:32:12.071Z,36.85
2023-03-21T17:38:46.647Z,35.53
2023-03-21T17:42:03.421Z,36.13
2023-03-21T17:45:21.254Z,39.35
2023-03-21T17:48:37.524Z,37.30
2023-03-21T17:51:54.713Z,35.78
2023-03-21T17:55:12.505Z,36.68
2023-03-21T17:58:31.919Z,37.03
2023-03-21T18:01:48.661Z,36.00
2023-03-21T18:05:04.990Z,37.55
2023-03-21T18:08:22.098Z,42.53
2023-03-21T18:11:38.504Z,41.10
2023-03-21T18:14:54.485Z,41.75
2023-03-21T18:18:12.821Z,42.73
2023-03-21T18:21:32.811Z,41.85
2023-03-21T18:24:47.879Z,42.85
2023-03-21T18:28:11.407Z,41.55
2023-03-21T18:31:29.689Z,42.55
2023-03-21T18:34:47.648Z,41.45
2023-03-21T18:38:03.817Z,52.60
2023-03-21T18:41:21.825Z,45.88
2023-03-21T18:44:42.145Z,45.48
2023-03-21T18:47:58.642Z,45.18
2023-03-21T18:51:16.532Z,46.93
2023-03-21T18:54:32.686Z,46.28
2023-03-21T18:57:49.270Z,41.30
2023-03-21T19:01:07.621Z,45.40
2023-03-21T19:04:29.941Z,45.58
2023-03-21T19:11:00.105Z,41.03
2023-03-21T19:14:20.766Z,41.23
2023-03-21T19:18:24.856Z,41.00
2023-03-21T19:20:59.422Z,43.53
2023-03-21T19:24:27.091Z,43.18
2023-03-21T19:27:34.518Z,43.53
2023-03-21T19:30:54.967Z,46.38
2023-03-21T19:34:11.886Z,47.03
2023-03-21T19:37:35.386Z,49.25
2023-03-21T19:40:52.420Z,46.15
2023-03-21T19:44:15.434Z,44.73
2023-03-21T19:47:32.934Z,43.93
2023-03-21T19:51:25.970Z,43.45
2023-03-21T19:54:14.069Z,45.08
2023-03-21T19:57:34.894Z,48.60
2023-03-21T20:00:51.237Z,45.55
2023-03-21T20:04:07.632Z,43.75
2023-03-21T20:07:24.033Z,42.00
2023-03-21T20:10:40.732Z,44.40
2023-03-21T20:13:58.078Z,41.80
2023-03-21T20:17:16.421Z,44.35
2023-03-21T20:20:33.102Z,86.55
2023-03-21T20:23:51.037Z,48.85
2023-03-21T20:27:07.513Z,45.50
2023-03-21T20:30:26.229Z,44.13
2023-03-21T20:33:43.393Z,43.73
2023-03-21T20:36:59.612Z,43.08
2023-03-21T20:40:18.769Z,44.58
2023-03-21T20:46:53.572Z,43.67
2023-03-21T20:50:10.382Z,45.20
2023-03-21T20:53:26.544Z,47.30
2023-03-21T20:56:42.851Z,44.53
2023-03-21T20:59:59.065Z,47.40
2023-03-21T21:03:17.496Z,45.15
2023-03-21T21:06:34.613Z,45.58
2023-03-21T21:09:51.350Z,47.48
2023-03-21T21:13:08.347Z,47.53
2023-03-21T21:16:24.934Z,48.38
2023-03-21T21:19:43.502Z,46.13
2023-03-21T21:23:25.596Z,46.83
2023-03-21T21:26:36.313Z,46.50
2023-03-21T21:29:53.041Z,46.88
2023-03-21T21:33:10.261Z,47.85
2023-03-21T21:36:26.895Z,46.75
2023-03-21T21:39:43.015Z,46.83
2023-03-21T21:43:01.194Z,52.45
2023-03-21T21:46:17.886Z,54.68
2023-03-21T21:49:34.231Z,56.45
2023-03-21T21:52:52.018Z,50.50
2023-03-21T21:56:08.331Z,52.15
2023-03-21T21:59:25.521Z,48.20
2023-03-21T22:02:41.785Z,50.00
2023-03-21T22:05:58.684Z,48.38
2023-03-21T22:09:16.517Z,47.28
2023-03-21T22:12:33.374Z,48.03
2023-03-21T22:15:51.318Z,48.78
2023-03-21T22:19:07.627Z,49.75
2023-03-21T22:22:23.693Z,50.33
2023-03-21T22:25:40.085Z,44.15
2023-03-21T22:28:56.799Z,56.50
2023-03-21T22:32:13.596Z,59.23
2023-03-21T22:35:29.914Z,49.85
2023-03-21T22:38:46.161Z,50.13
2023-03-21T22:42:05.822Z,61.30
2023-03-21T22:45:22.505Z,61.15
2023-03-21T22:48:39.335Z,61.53
2023-03-21T22:51:55.422Z,54.20
2023-03-21T22:55:13.603Z,51.38
2023-03-21T22:58:29.759Z,53.33
2023-03-21T23:01:45.876Z,57.65
2023-03-21T23:05:01.855Z,55.48
2023-03-21T23:08:18.382Z,57.58
2023-03-21T23:11:34.656Z,58.05
2023-03-21T23:14:50.717Z,61.95
2023-03-21T23:18:07.751Z,63.43
2023-03-21T23:21:24.686Z,64.95
2023-03-21T23:24:40.955Z,65.13
2023-03-21T23:27:58.039Z,64.30
2023-03-21T23:31:21.234Z,63.05
2023-03-21T23:34:37.454Z,59.55
2023-03-21T23:37:55.252Z,59.18
2023-03-21T23:41:16.688Z,60.60
2023-03-21T23:44:39.261Z,62.03
2023-03-21T23:47:55.311Z,59.33
2023-03-21T23:51:11.858Z,58.48
2023-03-21T23:54:28.048Z,62.88
2023-03-21T23:57:44.922Z,57.30
